Tiempo atmosférico en la estación meteorológica de Saelices El Chico, Salamanca (680 m.)



Fecha
DESCASC
Temp. máxima en grados centígrados (hora)
DESCASC
Temp. mínima en grados centígrados (hora)
DESCASC
Temp. media en grados centígrados
DESCASC
Racha de viento máxima en m/sg (hora)
DESCASC
Velocidad máxima media en intervalos de 10 minutos(hora)
DESCASC
Precipitaciones diarias en mm
DESCASC
Precipitaciones de 00:00 a 06:00 en mm
DESCASC
Precipitaciones de 06:00 a 12:00 en mm
DESCASC
Precipitaciones de 12:00 a 18:00 en mm
DESCASC
Precipitaciones de 18:00 a 24:00 en mm
DESCASC
11-12-2019 9.4 (14:30) 1.2 (03:50) 5.3 11.67 (12:50) 6.39 (12:50) 0 0 0 0 0
08-12-2019 10.8 (21:40) 1.6 (00:00) 6.2 4.72 (23:20) 2.78 (09:30) 0 0 0 0 0
07-12-2019 14.9 (15:20) -0.3 (00:00) 7.3 4.17 (16:50) 2.78 (00:40) 0 0 0 0 0
06-12-2019 7 (00:50) 0 (00:00) 3.5 6.39 (00:50) 3.89 (21:50) 0 0 0 0 0
05-12-2019 10.7 (14:20) 2.7 (00:00) 6.7 14.17 (16:00) 10 (15:20) 0.2 0 0.2 0 0
04-12-2019 9.1 (13:50) 0.1 (08:50) 4.6 7.78 (15:50) 4.72 (16:10) 0 0 0 0 0
03-12-2019 6.9 (16:10) 1.1 (00:00) 4 12.22 (03:40) 8.06 (11:10) 0 0 0 0 0
02-12-2019 10.3 (15:40) 4.3 (00:00) 7.3 16.67 (07:00) 11.11 (15:50) 0.2 0.2 0 0 0
01-12-2019 11.6 (12:20) 3.7 (00:00) 7.7 10.83 (21:00) 6.67 (21:00) 0 0 0 0 0
30-11-2019 14 (13:50) 4 (00:00) 9 16.39 (14:10) 8.06 (14:10) 0.2 0 0.2 0 0
29-11-2019 14.7 (14:40) 12.2 (00:00) 13.4 7.5 (00:50) 4.17 (00:50) 0.2 0.2 0 0 0
28-11-2019 14.4 (13:00) 8.9 (00:30) 11.6 13.61 (13:00) 7.22 (13:30) 0 0 0 0 0
27-11-2019 13.8 (15:00) 6.3 (00:00) 10.1 11.39 (01:30) 6.11 (01:40) 0.2 0 0 0 0.2
26-11-2019 15.1 (13:10) 7.6 (00:00) 11.4 15.56 (13:30) 7.5 (13:30) 0.4 0.2 0 0 0.2
25-11-2019 14.9 (14:10) 8 (23:50) 11.4 10.56 (00:50) 6.11 (14:30) 0.2 0 0.2 0 0
24-11-2019 12 (13:50) 1.5 (00:00) 6.8 9.44 (22:10) 4.72 (22:10) 0.6 0.2 0.2 0.2 0
23-11-2019 11.4 (14:30) 5 (00:00) 8.2 13.61 (13:40) 7.22 (00:20) 0.8 0.2 0.2 0.4 0
22-11-2019 12.8 (14:40) 6.1 (00:00) 9.5 20.83 (23:40) 10 (16:40) 1.2 0.4 0.2 0.4 0.2
21-11-2019 12.9 (13:50) 4.9 (00:00) 8.9 10.28 (14:10) 5.56 (14:10) 1.4 0.6 0.2 0.4 0.2
20-11-2019 8.5 (16:10) 3.8 (23:00) 6.1 10.83 (12:50) 5.83 (13:10) 3 1 0.8 0.8 0.4
19-11-2019 10.8 (14:40) -1.4 (-00:0) 4.7 6.39 (15:00) 3.61 (14:50) 0 0 0 0 0
18-11-2019 11.2 (15:00) 0.9 (00:00) 6 6.39 (06:00) 4.17 (05:10) 0.2 0.2 0 0 0
17-11-2019 10.2 (13:40) 3.5 (00:00) 6.8 9.44 (19:10) 5 (18:50) 9.4 0.2 2.6 4.4 2.2
16-11-2019 9.7 (15:50) -2 (-00:0) 3.8 7.5 (16:40) 4.44 (17:40) 0 0 0 0 0
15-11-2019 8.2 (14:00) 1.5 (00:00) 4.8 13.33 (15:20) 6.94 (12:50) 0 0 0 0 0

Gráficas

Temp. máximas Temp. mínimas Temp. medias Precipitaciones Rachas de viento máximas Velocidades máximas media en intervalos de 10 minutos

Datos horarios

Fecha y hora oficial Temperatura (ºC) Velocidad del viento (km/h) Dirección del viento Racha (km/h) Dirección de racha Precipitación (mm) Presión (hPa) Tendencia (hPa) Humedad (%)
2019-12-14 23:00:00 9.4 5 Sur 20 Sudoeste 0 938.6 -0.5 80
2019-12-14 22:00:00 9.6 11 Sur 23 Sur 0 938.6 0 79
2019-12-14 21:00:00 9.7 8 Sur 20 Sur 0 938.8 -0.3 78
2019-12-14 20:00:00 9.9 10 Sudoeste 23 Sur 0 939.1 -0.3 76
2019-12-14 19:00:00 10.1 10 Sur 18 Sur 0 938.6 -0.3 77
2019-12-14 18:00:00 10.4 12 Oeste 28 Sudoeste 0 939.1 0 74
2019-12-14 17:00:00 11.2 12 Sudoeste 27 Sudoeste 0 939.4 -0.3 72
2019-12-14 16:00:00 11.6 13 Sudoeste 28 Sur 0 938.9 -1.4 69
2019-12-14 15:00:00 11.4 15 Sudoeste 27 Sudoeste 0 939.1 -1.8 67
2019-12-14 14:00:00 11.5 12 Sudoeste 28 Sudoeste 0 939.7 -1.3 67
2019-12-14 13:00:00 11.1 10 Oeste 22 Sudoeste 0 940.3 -0.6 70
2019-12-14 12:00:00 10.8 10 Sudoeste 19 Sur 0 940.9 0.2 74
2019-12-14 11:00:00 9.7 9 Sur 17 Sur 0 941 0.2 79
2019-12-14 10:00:00 8.5 4 Sur 9 Sudeste 0 940.9 0.4 89
2019-12-14 09:00:00 8 3 Sur 13 Sudoeste 0 940.7 0.4 89
2019-12-14 08:00:00 8.3 6 Sudoeste 10 Sudoeste 0 940.8 0.3 89
2019-12-14 07:00:00 8.6 5 Sudoeste 9 Sudoeste 0 940.5 -0.7 86
2019-12-14 06:00:00 8.7 6 Oeste 17 Oeste 0 940.3 -0.9 84
2019-12-14 05:00:00 8.9 8 Oeste 21 Oeste 0 940.5 -0.7 81
2019-12-14 04:00:00 9 9 Oeste 18 Oeste 0 941.2 0 82
2019-12-14 03:00:00 9.1 12 Oeste 23 Oeste 0 941.2 -0.6 80
2019-12-14 02:00:00 9.1 12 Oeste 31 Oeste 0 941.2 -0.3 79
2019-12-14 01:00:00 9.5 17 Oeste 30 Oeste 0 941.2 -0.4 80
2019-12-14 00:00:00 9.4 4 Sur 23 Oeste 0 941.8 0.3 81
2019-12-13 23:00:00 10 13 Oeste 26 Oeste 0 941.5 0.4 79
2019-12-13 22:00:00 10.3 14 Oeste 31 Oeste 0 941.6 0.5 81
2019-12-13 21:00:00 10.5 13 Oeste 30 Oeste 0 941.5 0.6 83
2019-12-13 20:00:00 10.7 15 Oeste 30 Oeste 0 941.1 0.3 81
2019-12-13 19:00:00 10.9 11 Oeste 28 Sudoeste 0 941.1 0.4 83
2019-12-13 18:00:00 11.4 18 Oeste 36 Oeste 0 940.9 0.3 82
2019-12-13 17:00:00 11.7 21 Oeste 38 Oeste 0 940.8 -0.2 81
2019-12-13 16:00:00 11.9 21 Oeste 39 Oeste 0 940.7 -0.8 81
2019-12-13 15:00:00 12.3 25 Oeste 51 Oeste 0 940.6 -1.1 77
2019-12-13 14:00:00 12.3 25 Oeste 44 Oeste 0 941 -0.3 79
2019-12-13 13:00:00 11.9 17 Oeste 38 Oeste 0 941.5 0.9 79
2019-12-13 12:00:00 11.8 23 Oeste 42 Oeste 0 941.7 1.6 79
2019-12-13 11:00:00 11.1 17 Oeste 37 Oeste 0 941.3 1.6 81
2019-12-13 10:00:00 10.6 21 Oeste 33 Oeste 0 940.6 1.6 81
2019-12-13 09:00:00 10.2 16 Oeste 28 Oeste 0 940.1 1.9 84
2019-12-13 08:00:00 10.2 10 Oeste 21 Oeste 0 939.7 1.3 85
2019-12-13 07:00:00 10.1 10 Oeste 38 Oeste 0 939 0.7 85
2019-12-13 06:00:00 10 21 Oeste 42 Oeste 0 938.2 0 85
2019-12-13 05:00:00 10.7 23 Oeste 46 Oeste 0 938.4 0.3 79
2019-12-13 04:00:00 11.1 24 Oeste 45 Oeste 0 938.3 -0.2 81
2019-12-13 03:00:00 11.3 22 Oeste 48 Oeste 0 938.2 -0.4 82
2019-12-13 02:00:00 11.4 23 Oeste 45 Oeste 0 938.1 -0.3 83
2019-12-13 01:00:00 11.6 19 Oeste 40 Oeste 0 938.5 0.4 81
2019-12-13 00:00:00 11.5 18 Oeste 41 Noroeste 0 938.6 0.5 82
2019-12-12 23:00:00 11.6 19 Oeste 46 Oeste 0 938.4 0.1 82
2019-12-12 22:00:00 11.1 19 Oeste 45 Oeste 0 938.1 0.2 86
2019-12-12 21:00:00 11.1 21 Oeste 41 Oeste 0 938.1 -0.2 84
2019-12-12 20:00:00 11.1 21 Oeste 40 Oeste 0 938.3 -0.2 83
2019-12-12 19:00:00 10.7 22 Oeste 45 Oeste 0 937.9 -0.7 84
2019-12-12 18:00:00 10.4 21 Oeste 45 Oeste 0 938.3 -1.2 84
2019-12-12 17:00:00 9.9 19 Oeste 41 Sudoeste 0 938.5 -1.9 83
2019-12-12 16:00:00 9.7 22 Sudoeste 48 Oeste 0 938.6 -2.8 78
2019-12-12 15:00:00 9.3 19 Oeste 49 Oeste 0 939.5 -2.8 78
2019-12-12 14:00:00 8.4 21 Oeste 39 Sudoeste 0 940.4 -2.5 84
2019-12-12 13:00:00 7.3 16 Sudoeste 31 Sudoeste 0 941.4 -2.1 89
2019-12-12 12:00:00 6.9 10 Sur 27 Sudoeste 0 942.3 -0.5 90
2019-12-12 11:00:00 6.6 12 Sudoeste 25 Sudoeste 0 942.9 -0.4 89
2019-12-12 10:00:00 6.3 9 Sudoeste 24 Sudoeste 0 943.5 -0.2 86
2019-12-12 09:00:00 5.8 12 Sudoeste 21 Sudoeste 0 942.8 -1.2 87
2019-12-12 08:00:00 5.3 6 Sudoeste 17 Sudoeste 0 943.3 -1.4 87
2019-12-12 07:00:00 3.9 5 Sur 12 Noroeste 0 943.7 -1.8 90
2019-12-12 06:00:00 3.2 5 Sudeste 8 Sudeste 0 944 -2 91
2019-12-12 05:00:00 2.7 5 Sudeste 12 Sudeste 0 944.7 -2.2 90
2019-12-12 04:00:00 2.6 2 Sudeste 8 Este 0 945.5 -1.9 90
2019-12-12 03:00:00 2.7 3 Sudeste 11 Este 0 946 -1.8 89
2019-12-12 02:00:00 3.5 5 Sudeste 16 Oeste 0 946.9 -0.9 87
2019-12-12 01:00:00 4.6 10 Oeste 20 Oeste 0 947.4 -0.7 86
2019-12-12 00:00:00 3.5 3 Norte 9 Sudeste 0 947.8 -0.4 85
2019-12-11 23:00:00 4.7 6 Oeste 14 Oeste 0 947.8 -0.3 80
2019-12-11 22:00:00 5.1 4 Sur 12 Norte 0 948.1 0.1 77
2019-12-11 21:00:00 5.5 7 Noroeste 24 Noroeste 0 948.2 0.4 75
2019-12-11 20:00:00 4.4 7 Noroeste 19 Norte 0 948.1 0.7 75
2019-12-11 19:00:00 5.6 9 Noroeste 21 Noroeste 0 948 0.8 67
2019-12-11 18:00:00 6.7 9 Noroeste 20 Noroeste 0 947.8 0.6 65
2019-12-11 17:00:00 8.1 12 Noroeste 35 Noroeste 0 947.4 0.3 57
2019-12-11 16:00:00 9.1 20 Noroeste 37 Norte 0 947.2 0.3 48
2019-12-11 15:00:00 9 19 Noroeste 41 Norte 0 947.2 0 52
2019-12-11 14:00:00 9.1 18 Noroeste 41 Norte 0 947.1 0.1 54
2019-12-11 13:00:00 8.6 22 Noroeste 42 Noroeste 0 946.9 0.7 60
2019-12-11 12:00:00 8 17 Noroeste 39 Norte 0 947.2 1.8 73
2019-12-11 11:00:00 6.7 15 Noroeste 33 Norte 0 947 2.7 83
2019-12-11 10:00:00 5.8 17 Noroeste 28 Noroeste 0 946.2 2.7 88
2019-12-11 09:00:00 4.2 9 Noroeste 17 Norte 0 945.4 2.1 90
2019-12-11 08:00:00 3.1 3 Sudoeste 14 Este 0 944.3 0.5 87
2019-12-11 07:00:00 2.6 7 Sudeste 11 Sudeste 0 943.5 -0.7 86
2019-12-11 06:00:00 2.2 8 Sudeste 10 Sudeste 0 943.3 -1.5 87
2019-12-11 05:00:00 1.6 7 Sudeste 11 Sudeste 0 943.8 -1.6 89
2019-12-11 04:00:00 1.4 8 Este 12 Sudeste 0 944.2 -1.6 90
2019-12-11 03:00:00 1.7 8 Sudeste 12 Sudeste 0 944.8 -1.6 91
2019-12-11 02:00:00 1.9 7 Este 10 Sudeste 0 945.4 -1 91
2019-12-11 01:00:00 2.3 8 Sudeste 11 Sudeste 0 945.8 -0.8 91
2019-12-11 00:00:00 2 5 Este 11 Sudeste 0 946.4 -0.2 91
2019-12-10 23:00:00 2.5 5 Este 10 Oeste 0 946.4 -0.6 90
2019-12-10 22:00:00 3.8 5 Sudeste 13 Este 0 946.6 -0.4 89
2019-12-10 21:00:00 3.8 9 Este 11 Este 0 946.6 -0.3 89
2019-12-10 20:00:00 5.2 6 Sudeste 10 Este 0 947 0.2 83
2019-12-10 19:00:00 6.2 4 Norte 7 Oeste 0 947 -0.4 81
2019-12-10 18:00:00 7.2 2 Sudoeste 9 Sudeste 0 946.9 -0.9 78
2019-12-10 17:00:00 8.4 3 Este 5 Noroeste 0 946.8 -1.7 65
2019-12-10 16:00:00 7.7 3 Noroeste 5 Norte 0 947.4 -2.2 74
2019-12-10 15:00:00 7.1 2 Sudeste 10 Este 0 947.8 -2.7 78
2019-12-10 14:00:00 6.6 5 Sudeste 10 Sudeste 0 948.5 -2.3 86
2019-12-10 13:00:00 5.3 4 Sur 8 Sudeste 0 949.6 -1.3 92
2019-12-10 12:00:00 2 3 Este 11 Oeste 0 950.5 0 93
2019-12-10 11:00:00 0.8 2 Sudoeste 9 Sudeste 0 950.8 0.4 93
2019-12-10 10:00:00 -1.1 2 Sudeste 9 Este 0 950.9 0.7 93
2019-12-10 09:00:00 -1.8 6 Sudeste 11 Sudeste 0 950.5 0.4 93
2019-12-10 08:00:00 -1.7 2 Noroeste 12 Noroeste 0 950.4 -0.1 93
2019-12-10 07:00:00 -1.5 7 Noroeste 15 Oeste 0 950.2 -0.9 93
2019-12-10 06:00:00 -1 3 Sur 10 Sudeste 0 950.1 -0.8 93
2019-12-10 05:00:00 -1.1 7 Sudeste 9 Este 0 950.5 -0.7 92
2019-12-10 04:00:00 -0.3 4 Sudeste 8 Sudeste 0 951.1 -0.8 91
2019-12-10 03:00:00 0.8 3 Sudeste 5 Noroeste 0 950.9 -0.9 90
2019-12-10 02:00:00 1.7 5 Noroeste 10 Oeste 0 951.2 -0.6 89
2019-12-10 01:00:00 2.3 4 Sudeste 8 Sudeste 0 951.9 0 88
2019-12-10 00:00:00 3.8 5 Oeste 7 Oeste 0 951.8 0 87
2019-12-09 23:00:00 4.4 4 Este 6 Sudeste 0 951.8 0.3 87
2019-12-09 22:00:00 5.5 3 Este 7 Nordeste 0 951.9 1.2 85
2019-12-09 21:00:00 7.1 4 Norte 9 Norte 0 951.8 1.3 82
2019-12-09 20:00:00 7.3 4 Norte 10 Noroeste 0 951.5 0.9 82
2019-12-09 19:00:00 8.1 3 Nordeste 8 Este 0 950.7 0 78
2019-12-09 18:00:00 9.2 3 Este 11 Este 0.2 950.5 -0.2 76
2019-12-09 17:00:00 10.4 3 Sudeste 9 Este 0 950.6 -0.5 70
2019-12-09 16:00:00 11.6 2 Oeste 7 Oeste 0 950.7 -1 58
2019-12-09 15:00:00 12.1 5 Sudoeste 12 Sudoeste 0 950.7 -1.3 58
2019-12-09 14:00:00 11.1 2 Nordeste 8 Este 0 951.1 -0.8 63
2019-12-09 13:00:00 9.5 3 Sur 8 Sudoeste 0 951.7 0 70
2019-12-09 12:00:00 7 6 Sudeste 12 Sudeste 0 952 0.8 82
2019-12-09 11:00:00 6.6 7 Sudeste 10 Este 0 951.9 1.4 82
2019-12-09 10:00:00 6 3 Sudeste 6 Este 0 951.7 1.6 85
2019-12-09 09:00:00 5.7 3 Noroeste 10 Norte 0 951.2 1.5 88
2019-12-09 08:00:00 5.8 2 Sudoeste 10 Oeste 0 950.5 1.3 88
2019-12-09 07:00:00 6.3 5 Noroeste 13 Norte 0 950.1 0.7 89
2019-12-09 06:00:00 6.2 6 Norte 10 Norte 0 949.7 0.1 90
2019-12-09 05:00:00 6.4 6 Norte 13 Norte 0 949.2 -0.4 89
2019-12-09 04:00:00 7.5 4 Noroeste 10 Noroeste 0 949.4 0.3 88
2019-12-09 03:00:00 8.6 5 Noroeste 20 Norte 0 949.6 0.9 87
2019-12-09 02:00:00 9.1 6 Noroeste 22 Norte 0 949.6 1.1 90
2019-12-09 01:00:00 9.5 5 Noroeste 19 Norte 0 949.1 0.8 91
2019-12-09 00:00:00 9.6 4 Noroeste 17 Norte 0 948.7 0.9 92
2019-12-08 23:00:00 10.2 6 Noroeste 12 Noroeste 0 948.5 1 92
2019-12-08 22:00:00 10.5 3 Nordeste 14 Noroeste 0 948.3 1.4 92
2019-12-08 21:00:00 10.4 3 Sur 8 Sudeste 0 947.8 1.4 92
2019-12-08 20:00:00 10.2 4 Este 7 Este 0 947.5 1.4 92
2019-12-08 19:00:00 10.4 3 Oeste 8 Oeste 0 946.9 0.8 92
2019-12-08 18:00:00 10.2 2 Este 5 Este 0 946.4 0.3 91
2019-12-08 17:00:00 10.2 3 Este 6 Sudeste 0 946.1 -0.2 91
2019-12-08 16:00:00 10 4 Este 8 Sudeste 0 946.1 -0.5 91
2019-12-08 15:00:00 9.6 5 Sudeste 9 Sudeste 0 946.1 -1.1 90
2019-12-08 14:00:00 9.5 6 Este 10 Este 0 946.3 -0.6 89
2019-12-08 13:00:00 9 3 Este 6 Este 0 946.6 0 87
2019-12-08 12:00:00 7.9 0 Calma 9 Sudeste 0 947.2 0.6 87
2019-12-08 11:00:00 6.2 4 Este 9 Sudeste 0 946.9 0.4 91
2019-12-08 10:00:00 4.2 9 Sudeste 15 Sudeste 0 946.6 0.7 91
2019-12-08 09:00:00 4.1 6 Este 9 Este 0 946.6 0.9 90
2019-12-08 08:00:00 3.8 2 Oeste 8 Este 0 946.5 0.7 90
2019-12-08 07:00:00 3.1 6 Sudeste 11 Sudeste 0 945.9 -0.1 91
2019-12-08 06:00:00 2.6 8 Este 11 Sudeste 0 945.7 -0.7 91
2019-12-08 05:00:00 2.3 8 Este 12 Sudeste 0 945.8 -0.4 91
2019-12-08 04:00:00 2.4 8 Sudeste 11 Sudeste 0 946 -0.5 91
2019-12-08 03:00:00 1.8 9 Este 11 Este 0 946.4 0 91
2019-12-08 02:00:00 2.4 8 Sudeste 9 Sudeste 0 946.2 -0.2 90
2019-12-08 01:00:00 2.9 8 Sudeste 10 Sudeste 0 946.5 0.4 90
2019-12-08 00:00:00 3.9 8 Sudeste 9 Sudeste 0 946.4 0.6 89
2019-12-07 23:00:00 4.1 8 Sudeste 11 Sudeste 0 946.4 0.9 88
2019-12-07 22:00:00 5 6 Sudeste 10 Sudeste 0 946.1 1.1 85
2019-12-07 21:00:00 6.3 3 Este 8 Oeste 0 945.8 1.2 83
2019-12-07 20:00:00 7.6 7 Oeste 9 Oeste 0 945.5 1.1 79
2019-12-07 19:00:00 9.5 2 Norte 4 Este 0 945 0.9 71
2019-12-07 18:00:00 12.5 0 Calma 9 Noroeste 0 944.6 0.4 60
2019-12-07 17:00:00 13.5 7 Noroeste 15 Norte 0 944.4 -0.4 58
2019-12-07 16:00:00 14.4 5 Norte 12 Norte 0 944.1 -1.3 54
2019-12-07 15:00:00 14.2 4 Nordeste 10 Oeste 0 944.2 -1.6 54
2019-12-07 14:00:00 12.6 3 Noroeste 9 Norte 0 944.8 -0.8 60
2019-12-07 13:00:00 10.3 3 Oeste 9 Oeste 0 945.4 0.1 72
2019-12-07 12:00:00 7.6 3 Oeste 9 Sudeste 0 945.8 0.6 92
2019-12-07 11:00:00 4.4 6 Este 10 Este 0 945.6 0.8 92
2019-12-07 10:00:00 1.2 5 Sudeste 9 Sudeste 0 945.3 1.1 93
2019-12-07 09:00:00 0.1 5 Sudeste 8 Sudeste 0 945.2 0.9 94
2019-12-07 08:00:00 0 4 Este 12 Nordeste 0 944.8 0.5 94
2019-12-07 07:00:00 0.1 4 Sudeste 10 Sudeste 0 944.2 -0.1 93
2019-12-07 06:00:00 0 2 Noroeste 4 Sudoeste 0 944.3 -0.2 93
2019-12-07 05:00:00 0.7 3 Sur 10 Sudeste 0 944.3 -0.3 93
2019-12-07 04:00:00 1.7 6 Este 10 Este 0 944.3 -0.3 93
2019-12-07 03:00:00 2.3 5 Sudeste 9 Este 0 944.5 -0.3 93
2019-12-07 02:00:00 2.5 4 Este 9 Este 0 944.6 -0.2 93
2019-12-07 01:00:00 2.7 5 Este 14 Sudeste 0 944.6 0 93
2019-12-07 00:00:00 3.5 6 Sudeste 12 Sudeste 0 944.8 0.2 92
2019-12-06 23:00:00 3.4 3 Sur 11 Este 0 944.8 0.9 92
2019-12-06 22:00:00 3.3 11 Sudeste 19 Sudeste 0 944.6 1.4 92
2019-12-06 21:00:00 2.9 3 Sudeste 8 Sudeste 0 944.6 1.5 92
2019-12-06 20:00:00 3.4 6 Noroeste 14 Noroeste 0 943.9 0.7 91
2019-12-06 19:00:00 3.9 3 Sudeste 12 Sudeste 0 943.2 -0.1 91
2019-12-06 18:00:00 4.3 5 Sudeste 9 Sudeste 0 943.1 -0.3 89
2019-12-06 17:00:00 4.7 4 Noroeste 9 Noroeste 0 943.2 -1 88
2019-12-06 16:00:00 4.6 3 Oeste 7 Este 0 943.3 -1.2 89
2019-12-06 15:00:00 4.3 5 Este 9 Este 0 943.4 -1.5 90
2019-12-06 14:00:00 3.8 2 Noroeste 7 Sudeste 0 944.2 -0.9 91
2019-12-06 13:00:00 3.3 4 Sudeste 9 Sudeste 0 944.5 -0.1 92
2019-12-06 12:00:00 2.8 2 Sur 15 Este 0 944.9 0.9 92
2019-12-06 11:00:00 2.4 3 Este 9 Este 0 945.1 1.2 92
2019-12-06 10:00:00 1.9 2 Sudoeste 8 Oeste 0 944.6 1.4 92
2019-12-06 09:00:00 1.1 3 Sur 9 Sudeste 0 944 1 92
2019-12-06 08:00:00 0.2 4 Noroeste 10 Sudeste 0 943.9 1.1 91
2019-12-06 07:00:00 0.6 6 Sur 11 Nordeste 0 943.2 0.7 90
2019-12-06 06:00:00 1.7 6 Nordeste 10 Oeste 0 943 0.6 88
2019-12-06 05:00:00 3.5 5 Oeste 14 Nordeste 0 942.8 0.1 84
2019-12-06 04:00:00 3.6 12 Norte 14 Nordeste 0 942.5 0 86
2019-12-06 03:00:00 4.2 5 Sudoeste 20 Este 0 942.4 -0.1 80
2019-12-06 02:00:00 5.1 6 Este 17 Este 0 942.7 0.9 80
2019-12-06 01:00:00 6.1 5 Sudeste 23 Nordeste 0 942.5 0.4 75
2019-12-06 00:00:00 6.4 6 Norte 22 Este 0 942.5 0.6 76
2019-12-05 23:00:00 5.9 12 Este 28 Este 0 941.8 0.6 80
2019-12-05 22:00:00 6.5 8 Sudeste 17 Sudeste 0 942.1 1.6 78
2019-12-05 21:00:00 6.9 8 Sudeste 21 Este 0 941.9 1.9 78
2019-12-05 20:00:00 7.9 16 Este 39 Nordeste 0 941.2 1.4 75
2019-12-05 19:00:00 8.5 28 Nordeste 41 Nordeste 0 940.5 1.2 72
2019-12-05 18:00:00 8.9 26 Nordeste 45 Nordeste 0 940 0.8 70
2019-12-05 17:00:00 10 20 Nordeste 48 Nordeste 0 939.8 0 64
2019-12-05 16:00:00 10.1 33 Nordeste 51 Nordeste 0 939.3 -1 64
2019-12-05 15:00:00 10 29 Nordeste 45 Nordeste 0 939.2 -1.2 64
2019-12-05 14:00:00 10 10 Nordeste 34 Nordeste 0 939.8 -0.4 63
2019-12-05 13:00:00 8.2 22 Nordeste 44 Este 0 940.3 0.9 70
2019-12-05 12:00:00 8 28 Nordeste 48 Este 0.2 940.4 1.7 70
2019-12-05 11:00:00 7.5 18 Este 37 Este 0 940.2 2 72
2019-12-05 10:00:00 7.3 14 Este 35 Este 0 939.4 1.8 71
2019-12-05 09:00:00 6.4 9 Este 23 Nordeste 0 938.7 2 76
2019-12-05 08:00:00 4.7 8 Sudeste 24 Este 0 938.2 1.3 86
2019-12-05 07:00:00 4.4 8 Oeste 32 Nordeste 0 937.6 0.4 78
2019-12-05 06:00:00 5.5 14 Este 27 Nordeste 0 936.7 0.1 76
2019-12-05 05:00:00 4.6 6 Este 26 Este 0 936.9 0.9 76
2019-12-05 04:00:00 3.7 4 Nordeste 17 Nordeste 0 937.2 1.3 78
2019-12-05 03:00:00 3.9 6 Nordeste 16 Este 0 936.6 0.9 79
2019-12-05 02:00:00 2.9 3 Norte 12 Norte 0 936 1.1 89
2019-12-05 01:00:00 3 8 Norte 14 Norte 0 935.9 1.5 89
2019-12-05 00:00:00 3.1 9 Norte 14 Norte 0 935.7 1.7 88
2019-12-04 23:00:00 3.8 6 Noroeste 11 Norte 0 934.9 1.1 86
2019-12-04 22:00:00 4.6 3 Norte 9 Este 0 934.4 0.9 85
2019-12-04 21:00:00 5.1 9 Nordeste 14 Nordeste 0 934 0.9 83
2019-12-04 20:00:00 5 4 Noroeste 11 Noroeste 0 933.8 1.3 82
2019-12-04 19:00:00 6.2 5 Norte 10 Nordeste 0 933.5 1.2 77
2019-12-04 18:00:00 6.5 6 Norte 10 Norte 0 933.1 1 75
2019-12-04 17:00:00 7.2 5 Norte 24 Nordeste 0 932.5 0 71
2019-12-04 16:00:00 7.3 12 Nordeste 28 Norte 0 932.3 -0.7 69
2019-12-04 15:00:00 7.9 13 Nordeste 25 Norte 0 932.1 -1.6 65
2019-12-04 14:00:00 8.5 13 Norte 25 Norte 0 932.5 -1.3 60
2019-12-04 13:00:00 7.3 8 Nordeste 16 Nordeste 0 933 -0.5 64
2019-12-04 12:00:00 5.7 13 Nordeste 21 Nordeste 0 933.7 0.7 69
2019-12-04 11:00:00 4 3 Nordeste 13 Este 0 933.8 1.2 75
2019-12-04 10:00:00 2.3 4 Nordeste 11 Nordeste 0 933.5 0.8 83
2019-12-04 09:00:00 0.2 3 Norte 11 Este 0 933 0.2 90
2019-12-04 08:00:00 0.3 4 Sur 10 Sudeste 0 932.6 -0.7 90
2019-12-04 07:00:00 1.2 4 Noroeste 11 Norte 0 932.7 -1 90
2019-12-04 06:00:00 1.4 3 Sudoeste 9 Noroeste 0 932.8 -1.1 89
2019-12-04 05:00:00 1.1 5 Noroeste 10 Noroeste 0 933.3 -1.1 89
2019-12-04 04:00:00 1.9 6 Nordeste 12 Este 0 933.7 -1.1 90
2019-12-04 03:00:00 0.7 4 Norte 9 Norte 0 933.9 -1.5 90
2019-12-04 02:00:00 0.3 0 Calma 6 Este 0 934.4 -1 89
2019-12-04 01:00:00 0.4 3 Noroeste 14 Nordeste 0 934.8 -0.2 89
2019-12-04 00:00:00 1.1 3 Sur 11 Este 0 935.4 0.2 86
2019-12-03 23:00:00 1.3 8 Este 14 Este 0 935.4 0.4 86
2019-12-03 22:00:00 2.6 10 Este 15 Este 0 935 0.5 81
2019-12-03 21:00:00 3.2 7 Nordeste 15 Nordeste 0 935.2 0.5 77
2019-12-03 20:00:00 2.8 5 Norte 12 Nordeste 0 935 0.3 78
2019-12-03 19:00:00 3.8 6 Nordeste 10 Nordeste 0 934.5 -0.7 74
2019-12-03 18:00:00 5 7 Nordeste 21 Nordeste 0 934.7 -0.6 71
2019-12-03 17:00:00 6.5 13 Nordeste 24 Nordeste 0 934.7 -1.6 64
2019-12-03 16:00:00 6.8 16 Nordeste 29 Este 0 935.2 -1.9 62
2019-12-03 15:00:00 6.8 14 Nordeste 28 Nordeste 0 935.3 -2.4 64
2019-12-03 14:00:00 6.4 19 Nordeste 27 Nordeste 0 936.3 -1.8 64
2019-12-03 13:00:00 5.5 18 Nordeste 37 Nordeste 0 937.1 -1 68
2019-12-03 12:00:00 4.9 18 Este 43 Este 0 937.7 -0.6 70
2019-12-03 11:00:00 3.8 25 Nordeste 36 Nordeste 0 938.1 -0.2 72
2019-12-03 10:00:00 3.1 16 Nordeste 27 Nordeste 0 938.1 -0.2 73
2019-12-03 09:00:00 1.6 11 Nordeste 27 Nordeste 0 938.3 0.2 79
2019-12-03 08:00:00 1.3 14 Este 27 Este 0 938.3 -0.1 81
2019-12-03 07:00:00 1.5 13 Nordeste 38 Nordeste 0 938.3 -0.9 79
2019-12-03 06:00:00 1.9 19 Nordeste 40 Nordeste 0 938.1 -1 77
2019-12-03 05:00:00 1.8 24 Nordeste 37 Nordeste 0 938.4 -1.1 78
2019-12-03 04:00:00 2.1 9 Nordeste 44 Nordeste 0 939.2 -0.6 76
2019-12-03 03:00:00 2.3 22 Nordeste 36 Nordeste 0 939.1 -1 76
2019-12-03 02:00:00 2.8 10 Este 40 Nordeste 0 939.5 -0.3 74
2019-12-03 01:00:00 3.6 18 Nordeste 38 Nordeste 0 939.8 0.3 73
2019-12-03 00:00:00 4.3 15 Este 48 Nordeste 0 940.1 0.9 72
2019-12-02 23:00:00 4.8 19 Este 49 Nordeste 0 939.8 1.3 73
2019-12-02 22:00:00 5.5 19 Nordeste 53 Nordeste 0 939.5 1.3 72
2019-12-02 21:00:00 6.3 30 Nordeste 55 Nordeste 0 939.2 1 73
2019-12-02 20:00:00 7 32 Nordeste 50 Nordeste 0 938.5 0.8 71
2019-12-02 19:00:00 7.6 25 Nordeste 40 Nordeste 0 938.2 1 68
2019-12-02 18:00:00 8.5 17 Nordeste 47 Nordeste 0 938.2 1 64
2019-12-02 17:00:00 9.3 30 Nordeste 56 Nordeste 0 937.7 0.5 61
2019-12-02 16:00:00 10.2 33 Nordeste 55 Nordeste 0 937.2 -0.7 58
2019-12-02 15:00:00 9.7 32 Nordeste 55 Nordeste 0 937.2 -1.3 59
2019-12-02 14:00:00 9.5 34 Nordeste 55 Este 0 937.2 -1.1 62
2019-12-02 13:00:00 8.4 31 Nordeste 59 Nordeste 0 937.9 0.1 66
2019-12-02 12:00:00 8 33 Este 53 Nordeste 0 938.5 1.2 68
2019-12-02 11:00:00 6.8 32 Nordeste 48 Nordeste 0 938.3 1.5 73
2019-12-02 10:00:00 6.1 26 Nordeste 46 Nordeste 0 937.8 1.9 76
2019-12-02 09:00:00 5.5 23 Nordeste 46 Nordeste 0 937.3 2 77
2019-12-02 08:00:00 5.4 25 Nordeste 54 Nordeste 0 936.8 1.4 78
2019-12-02 07:00:00 5.3 38 Nordeste 60 Este 0 935.9 0.8 78
2019-12-02 06:00:00 5.4 21 Nordeste 52 Nordeste 0.2 935.3 0.8 77
2019-12-02 05:00:00 6.1 25 Nordeste 46 Nordeste 0 935.4 1.3 75
2019-12-02 04:00:00 6.2 22 Nordeste 40 Nordeste 0 935.1 0.9 77
2019-12-02 03:00:00 6.5 21 Nordeste 37 Norte 0 934.5 0 77
2019-12-02 02:00:00 6.2 21 Norte 46 Nordeste 0 934.1 -0.3 78
2019-12-02 01:00:00 6.1 26 Norte 49 Norte 0 934.2 0 80
2019-12-02 00:00:00 5.1 11 Norte 22 Norte 0 934.5 0.8 87
2019-12-01 23:00:00 6 10 Norte 19 Nordeste 0 934.4 1.2 84
2019-12-01 22:00:00 6.5 10 Norte 36 Nordeste 0 934.2 1.6 84
2019-12-01 21:00:00 6.9 24 Nordeste 39 Nordeste 0 933.7 1.7 80
2019-12-01 20:00:00 6.9 17 Norte 29 Norte 0 933.2 1.7 84
2019-12-01 19:00:00 7.5 15 Norte 28 Nordeste 0 932.6 1.5 84
2019-12-01 18:00:00 7.7 10 Norte 30 Norte 0 932 1.4 84
2019-12-01 17:00:00 8.6 10 Norte 27 Norte 0 931.5 0.9 84
2019-12-01 16:00:00 8.7 15 Norte 35 Norte 0 931.1 0.4 88
2019-12-01 15:00:00 9.8 13 Noroeste 26 Noroeste 0 930.6 -0.6 82
2019-12-01 14:00:00 9 11 Noroeste 22 Noroeste 0 930.6 -0.8 83
2019-12-01 13:00:00 10.3 6 Sudoeste 12 Este 0 930.7 -0.2 78
2019-12-01 12:00:00 11.2 6 Sudeste 14 Sudeste 0 931.2 0.6 73
2019-12-01 11:00:00 8.9 6 Sudeste 14 Este 0 931.4 0.8 83
2019-12-01 10:00:00 7.2 4 Este 8 Sur 0 930.9 0.3 89
2019-12-01 09:00:00 6.6 2 Sur 17 Sur 0 930.6 -0.6 88
2019-12-01 08:00:00 6.7 7 Sur 18 Sudoeste 0 930.6 -1.1 89
2019-12-01 07:00:00 6.7 11 Sur 28 Sudoeste 0 930.6 -2.1 88
2019-12-01 06:00:00 7.4 9 Sudoeste 20 Sur 0 931.2 -2.2 88
2019-12-01 05:00:00 7.3 10 Sur 24 Sur 0 931.7 -2.6 88
2019-12-01 04:00:00 6.8 9 Sur 21 Sur 0 932.7 -2.6 88
2019-12-01 03:00:00 5.5 7 Sudeste 21 Sur 0 933.4 -2.7 88
2019-12-01 02:00:00 4.5 5 Sur 13 Sudoeste 0 934.3 -2.3 90
2019-12-01 01:00:00 4.1 8 Sudeste 12 Este 0 935.3 -1.7 90
2019-12-01 00:00:00 4 8 Este 17 Sudoeste 0 936.1 -1.3 87
2019-11-30 23:00:00 4.6 5 Sudeste 12 Este 0 936.6 -0.6 87
2019-11-30 22:00:00 6 7 Sudeste 16 Sudoeste 0 937 -0.7 84
2019-11-30 21:00:00 6.9 4 Sudoeste 19 Sudoeste 0 937.4 -0.2 82
2019-11-30 20:00:00 7.6 10 Sudoeste 30 Sur 0 937.2 -0.4 83
2019-11-30 19:00:00 8.7 13 Oeste 28 Oeste 0 937.7 0.2 82
2019-11-30 18:00:00 9.2 10 Oeste 30 Oeste 0 937.6 0.2 86
2019-11-30 17:00:00 10 11 Noroeste 36 Oeste 0 937.6 0 86
2019-11-30 16:00:00 10.8 26 Oeste 48 Oeste 0 937.5 -0.6 79
2019-11-30 15:00:00 12.6 23 Oeste 59 Oeste 0 937.4 -1.8 81
2019-11-30 14:00:00 13.1 17 Oeste 40 Noroeste 0 937.6 -1.5 82
2019-11-30 13:00:00 12.9 14 Sudoeste 29 Sudoeste 0 938.1 -1.1 89
2019-11-30 12:00:00 12.7 17 Sudoeste 39 Sudoeste 0 939.2 -0.1 88
2019-11-30 11:00:00 13.1 22 Sudoeste 38 Sur 0.2 939.1 -0.3 81
2019-11-30 10:00:00 12.8 18 Sur 33 Sudoeste 0 939.2 -0.6 82
2019-11-30 09:00:00 12.2 14 Sur 26 Sur 0 939.3 -0.8 84
2019-11-30 08:00:00 12 12 Sudoeste 29 Sudoeste 0 939.4 -0.9 84
2019-11-30 07:00:00 12.4 16 Sudoeste 30 Sudoeste 0 939.8 -1.1 84
2019-11-30 06:00:00 12.2 14 Sur 32 Sudoeste 0 940.1 -1.2 85
2019-11-30 05:00:00 11.9 15 Sudoeste 27 Sur 0 940.3 -1.2 85
2019-11-30 04:00:00 11.9 9 Sur 15 Sur 0 940.9 -0.9 85
2019-11-30 03:00:00 11.9 5 Sudoeste 15 Sudoeste 0 941.3 -0.4 84
2019-11-30 02:00:00 12 6 Sudoeste 18 Sudoeste 0 941.5 -0.5 85
2019-11-30 01:00:00 12.5 8 Sudoeste 18 Sudoeste 0 941.8 -0.1 84
2019-11-30 00:00:00 12.8 9 Sudoeste 18 Sudoeste 0 941.7 -0.2 84
2019-11-29 23:00:00 12.9 6 Sur 18 Sudoeste 0 942 0.4 85
2019-11-29 22:00:00 12.5 4 Sudeste 7 Sudeste 0 941.9 0.6 88
2019-11-29 21:00:00 12.8 4 Sur 17 Sudoeste 0 941.9 0.6 86
2019-11-29 20:00:00 13 6 Sudoeste 14 Sudoeste 0 941.6 0.3 88
2019-11-29 19:00:00 13.2 9 Sudoeste 15 Sudoeste 0 941.3 0.2 90
2019-11-29 18:00:00 13.3 4 Sudeste 8 Sudeste 0 941.3 0 88
2019-11-29 17:00:00 13.6 6 Sur 15 Sudeste 0 941.3 -0.4 86
2019-11-29 16:00:00 14.2 9 Sur 16 Sudoeste 0 941.1 -0.8 84
2019-11-29 15:00:00 14.6 6 Sudoeste 17 Sudoeste 0 941.3 -1.1 79
2019-11-29 14:00:00 14.3 6 Sudoeste 19 Sudoeste 0 941.7 -0.4 83
2019-11-29 13:00:00 13.7 10 Sur 21 Sudoeste 0 941.9 0.4 85
2019-11-29 12:00:00 13.2 10 Sudoeste 17 Sur 0 942.4 1.5 88
2019-11-29 11:00:00 12.8 5 Sur 12 Sur 0 942.1 2 89
2019-11-29 10:00:00 12.4 6 Sudoeste 12 Sudoeste 0 941.5 1.9 90
2019-11-29 09:00:00 12.2 6 Sudoeste 15 Sudoeste 0 940.9 1.6 90
2019-11-29 08:00:00 12.3 9 Sudoeste 16 Sudoeste 0 940.1 1.2 90
2019-11-29 07:00:00 12.3 6 Sudoeste 18 Sudoeste 0 939.6 0.6 90
2019-11-29 06:00:00 12.3 8 Sudoeste 15 Sudoeste 0 939.3 0.6 89
2019-11-29 05:00:00 12.3 6 Sur 14 Sudoeste 0.2 938.9 0.4 88
2019-11-29 04:00:00 12.3 7 Sudoeste 15 Sudoeste 0 939 0.5 87
2019-11-29 03:00:00 12.5 5 Sur 16 Sudoeste 0 938.7 0.5 83
2019-11-29 02:00:00 12.6 8 Sur 22 Sudoeste 0 938.5 0.5 82
2019-11-29 01:00:00 12.6 12 Sudoeste 27 Sudoeste 0 938.5 0.7 81
2019-11-29 00:00:00 12.6 13 Sudoeste 26 Sur 0 938.2 0.6 79
2019-11-28 23:00:00 12.3 13 Sudoeste 33 Sudoeste 0 938 0.8 79
2019-11-28 22:00:00 12.2 10 Sudoeste 22 Sudoeste 0 937.8 0.8 79
2019-11-28 21:00:00 12 8 Sur 21 Sur 0 937.6 0.9 78
2019-11-28 20:00:00 12.2 10 Sur 26 Sudoeste 0 937.2 0.6 75
2019-11-28 19:00:00 12.3 12 Sudoeste 28 Sudoeste 0 937 0.6 74
2019-11-28 18:00:00 13.1 20 Sudoeste 37 Sudoeste 0 936.7 0.1 70
2019-11-28 17:00:00 13.5 19 Sudoeste 44 Sudoeste 0 936.6 -0.5 66
2019-11-28 16:00:00 13.7 24 Sudoeste 42 Sudoeste 0 936.4 -1.4 62
2019-11-28 15:00:00 13.4 19 Sudoeste 46 Sudoeste 0 936.6 -1.3 66
2019-11-28 14:00:00 14.1 22 Sudoeste 48 Sudoeste 0 937.1 -1.1 64
2019-11-28 13:00:00 14.2 24 Sudoeste 49 Sudoeste 0 937.8 0 65
2019-11-28 12:00:00 13.1 15 Sur 36 Sur 0 937.9 0.7 73
2019-11-28 11:00:00 11.8 19 Sudoeste 37 Sudoeste 0 938.2 1.5 79
2019-11-28 10:00:00 11.2 16 Sudoeste 30 Sudoeste 0 937.8 1.1 81
2019-11-28 09:00:00 10.5 14 Sur 27 Sudoeste 0 937.2 0.7 82
2019-11-28 08:00:00 10.4 9 Sur 18 Sur 0 936.7 0.2 83
2019-11-28 07:00:00 10.3 9 Sur 18 Sur 0 936.7 0.2 83
2019-11-28 06:00:00 10.3 11 Sudoeste 21 Sudoeste 0 936.5 0.1 81
2019-11-28 05:00:00 10.1 10 Sur 27 Sur 0 936.5 -0.2 81
2019-11-28 04:00:00 10 11 Sudoeste 22 Sur 0 936.5 -0.5 82
2019-11-28 03:00:00 9.7 12 Sur 21 Sur 0 936.4 -0.2 83
2019-11-28 02:00:00 9.4 8 Sur 22 Sur 0 936.7 0.2 80
2019-11-28 01:00:00 8.9 6 Sudeste 13 Sudoeste 0 937 0.9 83
2019-11-28 00:00:00 9.2 8 Sudoeste 18 Sudoeste 0 936.6 0.8 80
2019-11-27 23:00:00 9.2 7 Sur 21 Sudoeste 0 936.5 0.8 81
2019-11-27 22:00:00 9 12 Sur 19 Sudoeste 0.2 936.1 0.7 83
2019-11-27 21:00:00 9.6 10 Sudoeste 21 Sudoeste 0 935.8 1 82
2019-11-27 20:00:00 9.6 10 Sudoeste 37 Oeste 0 935.7 1.3 84
2019-11-27 19:00:00 10.7 12 Sudoeste 23 Sudoeste 0 935.4 1.1 75
2019-11-27 18:00:00 11 13 Sudoeste 26 Sudoeste 0 934.8 0.7 73
2019-11-27 17:00:00 11.5 15 Sudoeste 26 Sudoeste 0 934.4 -0.3 69
2019-11-27 16:00:00 11.9 14 Oeste 41 Sudoeste 0 934.3 -1 69
2019-11-27 15:00:00 13.5 15 Sudoeste 34 Sudoeste 0 934.1 -1.3 58
2019-11-27 14:00:00 12.4 15 Sudoeste 34 Sudoeste 0 934.7 -0.8 66
2019-11-27 06:00:00 8.1 8 Oeste 32 Oeste 0 932.9 0 74
2019-11-27 05:00:00 8.4 17 Oeste 40 Oeste 0 932.6 -0.1 78
2019-11-27 04:00:00 8.1 9 Oeste 23 Sudoeste 0 932.9 0.1 77
2019-11-27 03:00:00 8.3 5 Oeste 23 Sudoeste 0 932.9 0.7 75
2019-11-27 02:00:00 8.7 8 Sudoeste 41 Oeste 0 932.7 0.8 76
2019-11-27 01:00:00 9.8 11 Oeste 32 Oeste 0 932.8 1.5 84
2019-11-27 00:00:00 10.5 7 Oeste 17 Oeste 0 932.2 1 87
2019-11-26 23:00:00 10.6 11 Oeste 31 Oeste 0 931.9 1.8 87
2019-11-26 22:00:00 11 12 Sudoeste 39 Sudoeste 0 931.3 1.3 85
2019-11-26 21:00:00 11.8 23 Oeste 45 Oeste 0.2 931.2 1.3 81
2019-11-26 20:00:00 12.7 18 Sur 36 Sudoeste 0 930.1 0.4 72
2019-11-26 19:00:00 12.8 16 Sudoeste 36 Sudoeste 0 930 -0.1 74
2019-11-26 18:00:00 13.8 18 Sudoeste 50 Sudoeste 0 929.9 -0.3 70
2019-11-26 17:00:00 15 22 Sudoeste 42 Sudoeste 0 929.7 -1.4 76
2019-11-26 16:00:00 14.2 22 Sudoeste 44 Sudoeste 0 930.1 -1.7 83
2019-11-26 15:00:00 14.2 18 Sur 44 Sudoeste 0 930.2 -3.1 86
2019-11-26 14:00:00 14.2 17 Sur 56 Sudoeste 0 931.1 -2.4 83
2019-11-26 13:00:00 15 20 Sur 38 Sur 0 931.8 -1.9 78
2019-11-26 12:00:00 13.7 19 Sur 40 Sur 0 933.3 -0.9 82
2019-11-26 11:00:00 13.3 21 Sur 38 Sur 0 933.5 -0.5 84
2019-11-26 10:00:00 12.5 13 Sur 32 Sudoeste 0 933.7 -0.1 87
2019-11-26 09:00:00 11.7 12 Sur 24 Sudoeste 0 934.2 0 88
2019-11-26 08:00:00 11.9 15 Sur 32 Sudoeste 0 934 -0.4 86
2019-11-26 07:00:00 11.1 10 Sur 27 Sur 0 933.8 -1.6 85
2019-11-26 06:00:00 11.6 11 Sudeste 24 Sudeste 0 934.2 -1.6 84
2019-11-26 05:00:00 11.5 12 Sur 23 Sudeste 0 934.4 -1.8 85
2019-11-26 04:00:00 10.5 7 Sudeste 14 Sur 0.2 935.4 -1.6 88
2019-11-26 03:00:00 9.9 5 Sudeste 12 Sudeste 0 935.8 -1.6 89
2019-11-26 02:00:00 8.9 5 Sudeste 12 Sudeste 0 936.2 -1.7 90
2019-11-26 01:00:00 8.1 6 Este 12 Sudeste 0 937 -0.7 90
2019-11-26 00:00:00 8 7 Este 11 Este 0 937.4 -0.3 89
2019-11-25 23:00:00 8.9 5 Oeste 9 Oeste 0 937.9 0.2 88
2019-11-25 22:00:00 9 3 Sur 10 Sudeste 0 937.7 0 87
2019-11-25 21:00:00 10.3 5 Sudeste 9 Sudeste 0 937.7 0.4 82
2019-11-25 20:00:00 11.3 3 Sur 12 Oeste 0 937.7 1 78
2019-11-25 19:00:00 11.9 4 Oeste 14 Oeste 0 937.7 0.9 77
2019-11-25 18:00:00 12.5 10 Oeste 17 Oeste 0 937.3 1 74
2019-11-25 17:00:00 13.1 9 Oeste 35 Oeste 0 936.7 0 71
2019-11-25 16:00:00 13.6 16 Oeste 34 Oeste 0 936.8 -0.1 70
2019-11-25 15:00:00 14.4 20 Oeste 37 Oeste 0 936.3 -1 63
2019-11-25 14:00:00 14.7 14 Oeste 29 Oeste 0 936.7 -0.1 68
2019-11-25 13:00:00 13.9 9 Oeste 21 Sudoeste 0 936.9 0.6 71
2019-11-25 12:00:00 13.5 6 Sudoeste 22 Sudoeste 0 937.3 1.5 73
2019-11-25 11:00:00 13.6 13 Sudoeste 24 Sudoeste 0 936.8 1.3 76
2019-11-25 10:00:00 11 9 Oeste 16 Sudoeste 0.2 936.3 1 88
2019-11-25 09:00:00 9.6 9 Sudoeste 17 Sudoeste 0 935.8 0.8 88
2019-11-25 08:00:00 9.9 11 Sudoeste 17 Sudoeste 0 935.5 0.8 86
2019-11-25 07:00:00 9.8 4 Sur 19 Sudoeste 0 935.3 0.7 85
2019-11-25 06:00:00 10.3 13 Sudoeste 20 Sudoeste 0 935 0.3 88
2019-11-25 05:00:00 10.5 7 Sur 15 Sur 0 934.7 0.1 89
2019-11-25 04:00:00 10.5 8 Sur 18 Sur 0 934.6 -0.1 90
2019-11-25 03:00:00 10.5 6 Sur 14 Sudoeste 0 934.7 0.5 90
2019-11-25 02:00:00 10.7 8 Sudoeste 28 Sudoeste 0 934.6 0 88
2019-11-25 01:00:00 11.4 17 Sudoeste 38 Sudoeste 0 934.7 -0.2 80
2019-11-25 00:00:00 10.7 14 Sur 30 Sudoeste 0 934.2 -0.8 82
2019-11-24 23:00:00 10.5 13 Sur 34 Sur 0 934.6 -0.5 82
2019-11-24 22:00:00 10.4 15 Sudoeste 28 Sudoeste 0 934.9 -0.8 82
2019-11-24 21:00:00 10.3 13 Sur 33 Sudoeste 0 935 -0.8 82
2019-11-24 20:00:00 10 16 Sur 32 Sur 0 935.1 -0.9 83
2019-11-24 19:00:00 9.7 12 Sur 27 Sur 0 935.7 -0.3 83
2019-11-24 18:00:00 9.7 10 Sur 24 Sur 0 935.8 -0.4 78
2019-11-24 17:00:00 10.3 16 Sur 29 Sudoeste 0 936 -0.6 75
2019-11-24 16:00:00 10.8 17 Sudoeste 28 Sur 0.2 936 -1.1 69
2019-11-24 15:00:00 11.3 13 Sudoeste 24 Oeste 0 936.2 -1.8 64
2019-11-24 14:00:00 11.5 10 Sudoeste 22 Sudoeste 0 936.6 -1.5 63
2019-11-24 13:00:00 9.9 9 Sur 18 Sur 0 937.1 -0.6 67
2019-11-24 12:00:00 9 7 Sur 13 Sudeste 0 938 1 74
2019-11-24 11:00:00 6.1 8 Este 12 Sudeste 0 938.1 1.3 90
2019-11-24 10:00:00 4.3 6 Este 12 Sudeste 0 937.7 0.9 91
2019-11-24 09:00:00 2.6 8 Este 11 Sudeste 0.2 937 0.2 92
2019-11-24 08:00:00 1.5 9 Sudeste 12 Este 0 936.8 0.6 91
2019-11-24 07:00:00 1.8 6 Este 8 Este 0 936.8 0.8 91
2019-11-24 06:00:00 1.8 4 Sudeste 11 Este 0 936.8 1 91
2019-11-24 05:00:00 2.7 2 Este 9 Sudeste 0 936.2 0.6 90
2019-11-24 04:00:00 2.3 5 Sudeste 12 Sudeste 0 936 0.3 90
2019-11-24 03:00:00 3.4 4 Sur 9 Este 0 935.8 0.3 87
2019-11-24 02:00:00 5.2 8 Oeste 24 Noroeste 0 935.6 0.3 85
2019-11-24 01:00:00 5.6 13 Oeste 30 Oeste 0.2 935.7 0.8 84
2019-11-24 00:00:00 5.8 13 Oeste 26 Oeste 0 935.5 1.3 83
2019-11-23 23:00:00 5.8 12 Oeste 28 Oeste 0 935.3 1.7 85
2019-11-23 22:00:00 5.8 9 Oeste 19 Oeste 0 934.9 2.1 85
2019-11-23 21:00:00 5.6 7 Noroeste 18 Noroeste 0 934.2 2.4 82
2019-11-23 20:00:00 6.5 10 Oeste 24 Oeste 0 933.6 2.5 77
2019-11-23 19:00:00 7.4 11 Oeste 41 Oeste 0 932.8 2.4 70
2019-11-23 18:00:00 8.4 16 Oeste 34 Oeste 0.2 931.8 2.2 68
2019-11-23 17:00:00 9.9 18 Oeste 37 Oeste 0 931.1 1.8 58
2019-11-23 16:00:00 10.8 18 Oeste 41 Noroeste 0 930.4 0.8 54
2019-11-23 15:00:00 11 22 Oeste 46 Noroeste 0 929.6 0.3 56
2019-11-23 14:00:00 11.1 23 Noroeste 49 Noroeste 0 929.3 0.8 54
2019-11-23 13:00:00 9.4 14 Noroeste 43 Oeste 0.2 929.6 2.3 68
2019-11-23 12:00:00 8.7 17 Oeste 35 Oeste 0 929.3 3 68
2019-11-23 11:00:00 8.1 15 Oeste 33 Oeste 0 928.5 3.8 71
2019-11-23 10:00:00 6.2 4 Oeste 13 Sudoeste 0 927.3 3.9 81
2019-11-23 09:00:00 5.3 8 Sudoeste 22 Sudoeste 0 926.3 3.8 81
2019-11-23 08:00:00 5.3 14 Oeste 27 Oeste 0 924.7 2.9 80
2019-11-23 07:00:00 5.5 14 Oeste 28 Oeste 0.2 923.4 2.4 81
2019-11-23 06:00:00 5 15 Oeste 29 Oeste 0 922.5 1.9 81
2019-11-23 05:00:00 5.4 16 Oeste 42 Oeste 0 921.8 2.4 76
2019-11-23 04:00:00 5.9 19 Oeste 40 Oeste 0 921 2.8 76
2019-11-23 03:00:00 6.2 14 Oeste 47 Oeste 0 920.6 2.6 76
2019-11-23 02:00:00 6.3 19 Oeste 41 Oeste 0.2 919.4 1.9 79
2019-11-23 01:00:00 6.2 22 Oeste 48 Oeste 0 918.2 1.4 79
2019-11-23 00:00:00 6.1 24 Oeste 75 Oeste 0 918 2 81
2019-11-22 23:00:00 7.8 19 Oeste 54 Oeste 0 917.5 1.9 84
2019-11-22 22:00:00 8.5 23 Oeste 48 Oeste 0 916.8 1.6 78
2019-11-22 21:00:00 8.9 20 Oeste 47 Oeste 0.2 916 1 81
2019-11-22 20:00:00 9.2 22 Sudoeste 52 Oeste 0 915.6 1 78
2019-11-22 19:00:00 9.7 29 Oeste 53 Oeste 0 915.2 1.5 72
2019-11-22 18:00:00 9.9 23 Oeste 48 Oeste 0 915 0.7 75
2019-11-22 17:00:00 11.1 25 Oeste 71 Oeste 0.2 914.6 0.5 65
2019-11-22 16:00:00 11.7 22 Oeste 53 Oeste 0 913.7 -0.6 68
2019-11-22 15:00:00 11.3 27 Oeste 57 Oeste 0 914.3 -1.2 77
2019-11-22 14:00:00 12.5 18 Sudoeste 40 Sudoeste 0.2 914.1 -1.5 83
2019-11-22 13:00:00 12.5 14 Sur 41 Oeste 0 914.3 -1.9 88
2019-11-22 12:00:00 11.1 15 Sudoeste 41 Sur 0 915.5 -2.1 88
2019-11-22 11:00:00 10 21 Sur 49 Sur 0 915.6 -3.2 87
2019-11-22 10:00:00 10.3 18 Sur 39 Sudeste 0.2 916.2 -3.7 84
2019-11-22 09:00:00 9.6 18 Sur 39 Sur 0 917.6 -3.6 85
2019-11-22 08:00:00 8.9 18 Sur 37 Sur 0 918.8 -3.7 87
2019-11-22 07:00:00 8.3 20 Sur 37 Sudeste 0 919.9 -3.7 88
2019-11-22 06:00:00 8.1 18 Sur 36 Sur 0.2 921.2 -3.4 88
2019-11-22 05:00:00 7.9 14 Sur 32 Sur 0 922.5 -3 87
2019-11-22 04:00:00 8.1 17 Sur 32 Sudoeste 0 923.6 -2.9 85
2019-11-22 03:00:00 8.2 14 Sur 25 Sur 0 924.6 -2 88
2019-11-22 02:00:00 7.9 9 Sur 16 Sur 0 925.5 -1.8 89
2019-11-22 01:00:00 7.5 8 Sur 16 Sudoeste 0.2 926.5 -1.1 88
2019-11-22 00:00:00 6.9 9 Sur 15 Sur 0 926.6 -1 89
2019-11-21 23:00:00 7.2 5 Sur 15 Sur 0 927.3 -0.7 88
2019-11-21 22:00:00 7.7 8 Sur 12 Sur 0 927.6 -0.2 88
2019-11-21 21:00:00 7.7 3 Este 7 Sudeste 0 927.6 -0.3 88
2019-11-21 20:00:00 8.1 3 Sudeste 7 Norte 0.2 928 0.5 86
2019-11-21 19:00:00 7.9 5 Nordeste 9 Sudeste 0 927.8 0.2 86
2019-11-21 18:00:00 8.8 4 Sudeste 7 Noroeste 0 927.9 -0.1 84
2019-11-21 17:00:00 9.3 3 Oeste 13 Oeste 0 927.5 -0.8 75
2019-11-21 16:00:00 9.3 10 Sudoeste 19 Sudoeste 0.2 927.6 -0.9 75
2019-11-21 15:00:00 9.3 5 Sudoeste 37 Oeste 0 928 -1.1 79
2019-11-21 14:00:00 11.2 14 Oeste 28 Oeste 0 928.3 -0.8 60
2019-11-21 13:00:00 11.2 16 Sudoeste 28 Sudoeste 0.2 928.5 -0.4 66
2019-11-21 12:00:00 10.8 11 Sudoeste 19 Sudoeste 0 929.1 0.5 75
2019-11-21 11:00:00 8.4 8 Sudoeste 14 Sudoeste 0 929.1 1.2 87
2019-11-21 10:00:00 7.8 8 Sudoeste 14 Sudoeste 0.2 928.9 1.1 89
2019-11-21 09:00:00 6.9 5 Sudoeste 12 Sudoeste 0 928.6 0.9 90
2019-11-21 08:00:00 6.5 4 Sur 13 Sur 0 927.9 0 90
2019-11-21 07:00:00 6.3 5 Sur 15 Sudoeste 0 927.8 -0.7 90
2019-11-21 06:00:00 6 5 Este 10 Sudeste 0.2 927.7 -0.9 91
2019-11-21 05:00:00 5.7 5 Sudeste 9 Sudeste 0 927.9 -0.6 90
2019-11-21 04:00:00 5.6 4 Este 13 Sur 0 928.5 -0.6 90
2019-11-21 03:00:00 5.5 8 Sur 15 Sur 0.2 928.6 -0.5 89
2019-11-21 02:00:00 5.3 8 Sur 14 Sur 0 928.5 -0.7 90
2019-11-21 01:00:00 4.9 2 Sudoeste 9 Sur 0.2 929.1 0.3 90
2019-11-21 00:00:00 4.9 5 Sudoeste 15 Sudoeste 0 929.1 0.2 90
2019-11-20 23:00:00 3.8 4 Sudeste 14 Sur 0 929.2 0.3 90
2019-11-20 22:00:00 4 7 Sudeste 13 Sudeste 0.2 928.8 0.3 89
2019-11-20 21:00:00 4.8 9 Sur 19 Sur 0 928.9 0.4 87
2019-11-20 20:00:00 5.6 10 Sur 21 Sur 0.2 928.9 0.6 84
2019-11-20 19:00:00 6.4 8 Sur 16 Sur 0 928.5 0 83
2019-11-20 18:00:00 6.8 6 Sur 19 Sur 0.2 928.5 -0.3 82
2019-11-20 17:00:00 7.2 13 Sur 26 Sur 0 928.3 -0.8 81
2019-11-20 16:00:00 8.1 12 Sur 28 Sur 0.2 928.5 -1.1 82
2019-11-20 15:00:00 6.8 10 Sur 25 Sur 0 928.8 -1.4 85
2019-11-20 14:00:00 6.7 16 Sur 33 Sur 0.2 929.1 -1.4 83
2019-11-20 13:00:00 6.8 20 Sur 39 Sur 0.2 929.6 -1 82
2019-11-20 12:00:00 6.3 19 Sur 31 Sur 0 930.2 -0.6 86
2019-11-20 11:00:00 5.8 11 Sur 23 Sudeste 0.2 930.5 -0.7 87
2019-11-20 10:00:00 4.7 14 Sudeste 28 Sudeste 0.2 930.6 -0.7 88
2019-11-20 09:00:00 4.7 17 Sudeste 33 Sudeste 0 930.8 -0.8 89
2019-11-20 08:00:00 4.7 12 Sur 23 Sudeste 0.2 931.2 -0.1 89
2019-11-20 07:00:00 5 14 Sur 23 Sur 0.2 931.3 -0.6 88
2019-11-20 06:00:00 5.2 12 Sur 24 Sudoeste 0 931.6 -0.8 87
2019-11-20 05:00:00 5.4 8 Sur 22 Sur 0.2 931.3 -1.7 87
2019-11-20 04:00:00 5.6 10 Sur 21 Sur 0.2 931.9 -1.9 87
2019-11-20 03:00:00 5.7 6 Sur 21 Sur 0.2 932.4 -1.7 89
2019-11-20 02:00:00 5.7 10 Sur 21 Sur 0.2 933 -1.6 88
2019-11-20 01:00:00 6 9 Sur 21 Sur 0.2 933.8 -1.1 84
2019-11-20 00:00:00 6.6 11 Sudeste 19 Sudeste 0 934.1 -1 78
2019-11-19 23:00:00 6.8 10 Sudeste 19 Sur 0 934.6 -0.8 71
2019-11-19 22:00:00 6.9 10 Sur 15 Sur 0 934.9 -0.6 69
2019-11-19 21:00:00 7 9 Sudeste 19 Sudeste 0 935.1 -0.2 72
2019-11-19 20:00:00 7.1 7 Sudeste 13 Sur 0 935.4 -0.1 71
2019-11-19 19:00:00 7.8 7 Sur 16 Sur 0 935.5 -0.1 69
2019-11-19 18:00:00 8.5 10 Sur 18 Sur 0 935.3 -0.8 63
2019-11-19 17:00:00 9.4 10 Sur 21 Sudoeste 0 935.5 -1.3 60
2019-11-19 16:00:00 10.3 10 Sudoeste 21 Sudoeste 0 935.6 -1.9 51
2019-11-19 15:00:00 10.7 12 Sudoeste 23 Sudoeste 0 936.1 -2.2 52
2019-11-19 14:00:00 10.4 8 Sur 17 Sudoeste 0 936.8 -2 58
2019-11-19 13:00:00 8.5 6 Sur 13 Sur 0 937.5 -1.5 67
2019-11-19 12:00:00 5.7 6 Este 11 Este 0 938.3 -0.3 81
2019-11-19 11:00:00 3.1 6 Este 10 Sudeste 0 938.8 0.3 88
2019-11-19 10:00:00 0.8 4 Sudeste 8 Este 0 939 0.6 91
2019-11-19 09:00:00 -0.5 6 Sudeste 8 Este 0 938.6 0.2 92
2019-11-19 08:00:00 -0.5 5 Sudeste 7 Sudeste 0 938.5 -0.1 91
2019-11-19 07:00:00 -0.5 5 Sudeste 13 Sudeste 0 938.4 -0.6 92
2019-11-19 06:00:00 -0.2 8 Este 10 Sudeste 0 938.4 -0.6 92
2019-11-19 05:00:00 -0.2 7 Este 13 Sudeste 0 938.6 -0.2 92
2019-11-19 04:00:00 -0.7 8 Este 9 Este 0 939 -0.6 91
2019-11-19 03:00:00 -0.2 3 Sudeste 10 Sudoeste 0 939 -0.7 90
2019-11-19 02:00:00 0.8 9 Este 11 Este 0 938.8 -0.9 90
2019-11-19 01:00:00 1.1 7 Sudeste 9 Sudeste 0 939.6 -0.1 90
2019-11-19 00:00:00 1.1 6 Sudeste 10 Sur 0 939.7 0.5 88
2019-11-18 23:00:00 1.9 4 Sur 10 Sudeste 0 939.7 0.9 87
2019-11-18 22:00:00 3 5 Este 8 Sudeste 0 939.7 1 85
2019-11-18 21:00:00 4.2 4 Sudeste 10 Noroeste 0 939.2 0.8 80
2019-11-18 20:00:00 5.6 3 Noroeste 8 Noroeste 0 938.8 0.8 74
2019-11-18 19:00:00 6.9 5 Noroeste 13 Noroeste 0 938.7 0.9 68
2019-11-18 18:00:00 9.3 6 Noroeste 13 Norte 0 938.4 0.4 60
2019-11-18 17:00:00 10.9 6 Noroeste 17 Norte 0 938 0.1 53
2019-11-18 16:00:00 11.1 7 Nordeste 16 Nordeste 0 937.8 -0.4 54
2019-11-18 15:00:00 10.8 6 Noroeste 20 Norte 0 938 -0.9 54
2019-11-18 14:00:00 10.1 7 Noroeste 19 Noroeste 0 937.9 -0.8 59
2019-11-18 13:00:00 8.6 9 Norte 18 Noroeste 0 938.2 -0.1 67
2019-11-18 12:00:00 7.3 8 Noroeste 15 Norte 0 938.9 1.5 73
2019-11-18 11:00:00 6.8 5 Oeste 12 Sur 0 938.7 2 81
2019-11-18 10:00:00 4.1 4 Oeste 11 Sudoeste 0 938.3 2 90
2019-11-18 09:00:00 2.1 3 Sur 10 Este 0 937.4 1.9 92
2019-11-18 08:00:00 1.5 9 Sudeste 11 Sudeste 0 936.7 1.6 91
2019-11-18 07:00:00 1.8 4 Noroeste 21 Noroeste 0 936.3 1.5 91
2019-11-18 06:00:00 2.5 14 Noroeste 23 Norte 0 935.5 1 91
2019-11-18 05:00:00 3 14 Noroeste 22 Noroeste 0 935.1 0.8 90
2019-11-18 04:00:00 2.8 9 Norte 19 Noroeste 0.2 934.8 0.4 90
2019-11-18 03:00:00 3.2 8 Noroeste 21 Noroeste 0 934.5 0.2 90
2019-11-18 02:00:00 3.4 10 Noroeste 17 Noroeste 0 934.3 -0.4 90
2019-11-18 01:00:00 3.4 3 Norte 18 Oeste 0 934.4 0.2 89
2019-11-18 00:00:00 3.9 4 Sudoeste 22 Oeste 0.2 934.3 0.6 88
2019-11-17 23:00:00 4.6 6 Norte 16 Noroeste 0.2 934.7 1.1 87
2019-11-17 22:00:00 5.6 8 Noroeste 20 Noroeste 0.4 934.2 0.9 85
2019-11-17 21:00:00 6 10 Noroeste 27 Oeste 0.4 933.7 0.8 84
2019-11-17 20:00:00 6.6 10 Oeste 34 Noroeste 0.4 933.6 0.6 85
2019-11-17 19:00:00 8.3 14 Noroeste 31 Noroeste 0.6 933.3 0.3 87
2019-11-17 18:00:00 9.1 9 Oeste 27 Oeste 0.8 932.9 -0.6 90
2019-11-17 17:00:00 9.2 15 Oeste 30 Oeste 2.6 933 -1.2 90
2019-11-17 16:00:00 9.8 12 Oeste 26 Sudoeste 0.2 933 -2 88
2019-11-17 15:00:00 9.7 14 Sudoeste 28 Oeste 0.8 933.5 -2 89
2019-11-17 14:00:00 10.2 15 Oeste 31 Oeste 0 934.2 -1.9 85
2019-11-17 13:00:00 9.5 7 Sudoeste 16 Sudoeste 0 935 -0.8 91
2019-11-17 12:00:00 7.9 6 Nordeste 18 Sudeste 1.4 935.5 -0.6 91
2019-11-17 11:00:00 6.7 4 Sur 10 Sur 1 936.1 0.4 91
2019-11-17 10:00:00 6.1 9 Sudeste 14 Sur 0 935.8 0.3 91
2019-11-17 09:00:00 5.1 2 Sudeste 9 Sudeste 0 936.1 -0.1 91
2019-11-17 08:00:00 4.7 6 Sudeste 14 Sudeste 0 935.7 -0.8 91
2019-11-17 07:00:00 4.2 9 Sudeste 17 Sudeste 0.2 935.5 -1.4 91
2019-11-17 06:00:00 4 6 Sudeste 13 Sudeste 0 936.2 -1.1 90
2019-11-17 05:00:00 3.9 7 Sur 10 Sur 0.2 936.5 -1.2 89
2019-11-17 04:00:00 4.1 5 Sudoeste 10 Sudoeste 0 936.9 -1.2 86
2019-11-17 03:00:00 3.8 4 Sudeste 9 Este 0 937.3 -1.1 87
2019-11-17 02:00:00 3.6 5 Este 9 Sudeste 0 937.7 -0.9 85
2019-11-17 01:00:00 4.4 4 Sur 6 Sur 0 938.1 -0.4 83
2019-11-17 00:00:00 4 4 Sudeste 6 Oeste 0 938.4 0.1 82
2019-11-16 23:00:00 3.9 2 Sudoeste 12 Noroeste 0 938.6 0.3 78
2019-11-16 22:00:00 4.7 5 Oeste 13 Oeste 0 938.5 0.2 74
2019-11-16 21:00:00 5.6 0 Calma 12 Oeste 0 938.3 0.4 73
2019-11-16 20:00:00 6 7 Oeste 21 Oeste 0 938.3 0.6 70
2019-11-16 19:00:00 6.4 10 Oeste 22 Noroeste 0 938.3 0.7 68
2019-11-16 18:00:00 6.9 14 Noroeste 27 Noroeste 0 937.9 0.4 64
2019-11-16 17:00:00 7.4 13 Oeste 27 Oeste 0 937.7 0.2 62
2019-11-16 16:00:00 9.1 13 Oeste 26 Noroeste 0 937.6 -0.4 53
2019-11-16 15:00:00 8.3 11 Noroeste 23 Norte 0 937.5 -1 58
2019-11-16 14:00:00 7.9 6 Noroeste 16 Oeste 0 937.5 -0.9 62
2019-11-16 13:00:00 5.8 6 Oeste 14 Oeste 0 938 0.1 71
2019-11-16 12:00:00 4.6 3 Sudoeste 12 Sur 0 938.5 1.5 76
2019-11-16 11:00:00 2.9 8 Sudoeste 13 Sur 0 938.4 2.4 84
2019-11-16 10:00:00 0.7 7 Sur 9 Sur 0 937.9 2.7 91
2019-11-16 09:00:00 -1.3 3 Este 6 Sudoeste 0 937 2.4 91
2019-11-16 08:00:00 -1.8 4 Sudeste 7 Sudoeste 0 936 2.2 90
2019-11-16 07:00:00 -0.9 5 Sudoeste 12 Noroeste 0 935.2 1.4 90
2019-11-16 06:00:00 -0.8 7 Norte 13 Norte 0 934.6 1.4 89
2019-11-16 05:00:00 -0.2 8 Noroeste 18 Norte 0 933.8 0.9 89
2019-11-16 04:00:00 0.4 12 Norte 17 Norte 0 933.8 1.2 89
2019-11-16 03:00:00 0.4 7 Noroeste 15 Norte 0 933.2 0.9 87
2019-11-16 02:00:00 0.6 5 Noroeste 19 Noroeste 0 932.9 1.2 85
2019-11-16 01:00:00 1.2 10 Noroeste 21 Noroeste 0 932.6 1.2 85
2019-11-16 00:00:00 1.9 9 Noroeste 19 Noroeste 0 932.3 1.5 82
2019-11-15 23:00:00 2.1 8 Noroeste 13 Noroeste 0 931.7 1.3 81
2019-11-15 22:00:00 2.6 7 Noroeste 21 Noroeste 0 931.4 1.6 79
2019-11-15 21:00:00 2.8 7 Noroeste 18 Oeste 0 930.8 1.3 76
2019-11-15 20:00:00 3.4 10 Noroeste 22 Noroeste 0 930.4 1.4 73
2019-11-15 19:00:00 3.9 9 Noroeste 20 Noroeste 0 929.8 0.7 66
2019-11-15 18:00:00 5.2 13 Noroeste 40 Noroeste 0 929.5 0.3 58
2019-11-15 17:00:00 6.8 23 Noroeste 37 Norte 0 929 -0.2 52
2019-11-15 16:00:00 7.4 20 Noroeste 48 Noroeste 0 929.1 -0.6 50
2019-11-15 15:00:00 7.1 21 Noroeste 45 Norte 0 929.2 -1 53
2019-11-15 14:00:00 8 20 Noroeste 41 Noroeste 0 929.2 -0.7 51
2019-11-15 13:00:00 7.1 20 Noroeste 45 Noroeste 0 929.7 0.1 55
2019-11-15 12:00:00 6.2 21 Noroeste 47 Noroeste 0 930.2 0.7 59
2019-11-15 11:00:00 5.5 20 Noroeste 48 Noroeste 0 929.9 1 65
2019-11-15 10:00:00 4.3 17 Noroeste 41 Noroeste 0 929.6 1.3 73
2019-11-15 09:00:00 2.2 10 Noroeste 26 Noroeste 0 929.5 1.3 81
2019-11-15 08:00:00 1.8 10 Noroeste 27 Noroeste 0 928.9 0.5 81
2019-11-15 07:00:00 1.6 13 Noroeste 27 Noroeste 0 928.3 0.1 81
2019-11-15 06:00:00 1.7 12 Noroeste 21 Noroeste 0 928.2 0.1 81
2019-11-15 05:00:00 1.8 6 Noroeste 26 Noroeste 0 928.4 0 80
2019-11-15 04:00:00 2.4 14 Noroeste 28 Oeste 0 928.2 -0.5 77
2019-11-15 03:00:00 2.8 17 Noroeste 31 Noroeste 0 928.1 -0.5 76
2019-11-15 02:00:00 2.8 15 Oeste 26 Oeste 0 928.4 0.1 75
2019-11-15 01:00:00 3.4 11 Noroeste 27 Noroeste 0 928.7 0.7 77
2019-11-15 00:00:00 3.7 10 Noroeste 31 Oeste 0 928.6 1.1 74